Time;durP1;ratioP1;P1;durP2;ratioP2;P2;SDS_P1;SDS_P2;PMS_P1;PMS_P2;Temp;Humidity;BMP_temperature;BMP_pressure;BME280_temperature;BME280_humidity;BME280_pressure;Samples;Min_cycle;Max_cycle;Signal;HPM_P1;HPM_P2
2021/09/09 00:01:07;;;;;;;4.53;3.13;;;;;;;;;;5050546;28;20481;-43
2021/09/09 00:03:35;;;;;;;4.68;2.92;;;;;;;;;;5018375;28;20110;-40
2021/09/09 00:06:00;;;;;;;4.53;2.58;;;;;;;;;;5018907;28;20045;-40
2021/09/09 00:08:26;;;;;;;4.93;2.90;;;;;;;;;;5018356;28;20469;-40
2021/09/09 00:10:52;;;;;;;4.10;2.85;;;;;;;;;;5018548;28;20072;-40
2021/09/09 00:13:19;;;;;;;4.35;2.95;;;;;;;;;;5018524;28;20155;-40
2021/09/09 00:15:46;;;;;;;8.80;2.67;;;;;;;;;;5018636;28;20354;-40
2021/09/09 00:18:13;;;;;;;4.38;2.97;;;;;;;;;;5016229;28;20026;-40
2021/09/09 00:20:40;;;;;;;5.72;2.92;;;;;;;;;;5015206;28;20146;-40
2021/09/09 00:23:05;;;;;;;3.55;2.10;;;;;;;;;;5015287;28;20109;-40
2021/09/09 00:25:31;;;;;;;5.63;3.10;;;;;;;;;;5015288;28;20018;-40
2021/09/09 00:27:57;;;;;;;6.60;3.08;;;;;;;;;;5015192;28;20512;-40
2021/09/09 00:30:22;;;;;;;6.32;3.10;;;;;;;;;;5015108;28;20022;-40
2021/09/09 00:32:48;;;;;;;4.35;2.60;;;;;;;;;;5046806;28;20022;-40
2021/09/09 00:35:14;;;;;;;5.13;3.08;;;;;;;;;;5015112;28;20026;-39
2021/09/09 00:37:39;;;;;;;4.32;2.75;;;;;;;;;;5030173;28;20033;-40
2021/09/09 00:40:05;;;;;;;4.65;2.78;;;;;;;;;;5014940;28;20041;-40
2021/09/09 00:42:30;;;;;;;4.20;2.80;;;;;;;;;;5014908;28;20476;-40
2021/09/09 00:44:56;;;;;;;4.15;2.42;;;;;;;;;;5014744;28;20050;-40
2021/09/09 00:47:21;;;;;;;5.43;2.47;;;;;;;;;;5014824;28;20025;-40
2021/09/09 00:49:47;;;;;;;4.38;3.45;;;;;;;;;;5014912;28;20017;-40
2021/09/09 00:52:13;;;;;;;7.65;3.03;;;;;;;;;;5014577;28;20030;-40
2021/09/09 00:54:39;;;;;;;3.35;2.28;;;;;;;;;;5014700;28;20022;-40
2021/09/09 00:57:05;;;;;;;4.72;2.50;;;;;;;;;;5014746;28;20030;-40
2021/09/09 00:59:34;;;;;;;5.28;2.47;;;;;;;;;;5046354;28;20076;-40
2021/09/09 01:02:00;;;;;;;3.65;2.78;;;;;;;;;;5014494;28;20089;-40
2021/09/09 01:04:25;;;;;;;4.80;3.03;;;;;;;;;;5014438;28;20093;-40
2021/09/09 01:06:51;;;;;;;7.45;2.72;;;;;;;;;;5014493;28;20111;-40
2021/09/09 01:09:17;;;;;;;6.13;2.80;;;;;;;;;;5014694;28;20152;-40
2021/09/09 01:11:42;;;;;;;6.50;2.83;;;;;;;;;;5014605;28;20413;-40
2021/09/09 01:14:11;;;;;;;3.67;2.50;;;;;;;;;;5014347;28;20424;-40
2021/09/09 01:16:37;;;;;;;4.32;2.80;;;;;;;;;;5014492;28;20042;-39
2021/09/09 01:19:03;;;;;;;5.47;3.28;;;;;;;;;;5014573;28;20014;-39
2021/09/09 01:21:29;;;;;;;5.68;3.25;;;;;;;;;;5014049;28;20065;-39
2021/09/09 01:23:56;;;;;;;5.10;2.95;;;;;;;;;;5014127;28;20381;-39
2021/09/09 01:26:22;;;;;;;2.92;2.17;;;;;;;;;;5014337;28;20346;-39
2021/09/09 01:28:47;;;;;;;7.82;2.88;;;;;;;;;;5013984;28;20097;-39
2021/09/09 01:31:13;;;;;;;3.33;2.40;;;;;;;;;;5014050;28;20507;-39
2021/09/09 01:33:39;;;;;;;6.18;2.85;;;;;;;;;;5045767;28;20484;-39
2021/09/09 01:36:04;;;;;;;3.80;2.22;;;;;;;;;;5014233;28;20045;-39
2021/09/09 01:38:30;;;;;;;3.33;2.15;;;;;;;;;;5013900;28;20064;-39
2021/09/09 01:40:55;;;;;;;8.10;2.70;;;;;;;;;;5013777;28;20045;-39
2021/09/09 01:43:21;;;;;;;7.00;3.10;;;;;;;;;;5013751;28;20139;-40
2021/09/09 01:45:46;;;;;;;4.15;3.20;;;;;;;;;;5013848;28;20034;-39
2021/09/09 01:48:11;;;;;;;5.65;3.38;;;;;;;;;;5013696;28;20080;-39
2021/09/09 01:50:38;;;;;;;4.95;3.10;;;;;;;;;;5013926;28;20040;-39
2021/09/09 01:53:03;;;;;;;6.00;3.03;;;;;;;;;;5013645;28;20025;-39
2021/09/09 01:55:29;;;;;;;5.30;2.63;;;;;;;;;;5013678;28;20045;-39
2021/09/09 01:57:54;;;;;;;5.07;3.10;;;;;;;;;;5013894;28;20088;-39
2021/09/09 02:00:19;;;;;;;4.30;2.72;;;;;;;;;;5013682;28;20358;-39
2021/09/09 02:02:45;;;;;;;4.55;2.58;;;;;;;;;;5013395;28;20022;-39
2021/09/09 02:05:11;;;;;;;3.45;2.55;;;;;;;;;;5013783;28;20061;-39
2021/09/09 02:07:37;;;;;;;3.80;2.33;;;;;;;;;;5013362;28;20100;-39
2021/09/09 02:10:02;;;;;;;4.35;2.72;;;;;;;;;;5013371;28;20030;-39
2021/09/09 02:12:28;;;;;;;5.68;2.83;;;;;;;;;;5013238;28;20056;-39
2021/09/09 02:14:53;;;;;;;5.38;3.03;;;;;;;;;;5013302;28;20030;-39
2021/09/09 02:17:18;;;;;;;5.15;2.67;;;;;;;;;;5013156;28;20054;-39
2021/09/09 02:19:44;;;;;;;4.30;2.63;;;;;;;;;;5013441;28;20030;-39
2021/09/09 02:22:09;;;;;;;5.15;2.85;;;;;;;;;;5013330;28;20033;-39
2021/09/09 02:24:35;;;;;;;3.83;2.80;;;;;;;;;;5013386;28;20477;-39
2021/09/09 02:27:01;;;;;;;3.80;2.45;;;;;;;;;;5013298;28;20032;-39
2021/09/09 02:29:26;;;;;;;6.82;3.88;;;;;;;;;;5013268;28;20385;-42
2021/09/09 02:31:52;;;;;;;5.75;3.03;;;;;;;;;;5013180;28;20483;-42
2021/09/09 02:34:17;;;;;;;7.75;2.85;;;;;;;;;;5012929;28;20380;-38
2021/09/09 02:36:42;;;;;;;3.13;2.47;;;;;;;;;;5013291;28;20018;-39
2021/09/09 02:39:08;;;;;;;5.63;2.40;;;;;;;;;;5012798;28;20511;-38
2021/09/09 02:41:33;;;;;;;4.70;2.58;;;;;;;;;;5012313;28;20022;-38
2021/09/09 02:43:58;;;;;;;6.35;2.85;;;;;;;;;;5012738;28;20120;-38
2021/09/09 02:46:24;;;;;;;4.35;2.30;;;;;;;;;;5044747;28;20087;-38
2021/09/09 02:48:49;;;;;;;3.97;2.60;;;;;;;;;;5012836;28;20389;-39
2021/09/09 02:51:15;;;;;;;4.53;2.72;;;;;;;;;;5012711;28;20022;-38
2021/09/09 02:53:40;;;;;;;3.42;2.28;;;;;;;;;;5012539;28;20022;-39
2021/09/09 02:56:05;;;;;;;8.77;2.78;;;;;;;;;;5012771;28;20488;-38
2021/09/09 02:58:31;;;;;;;7.28;3.03;;;;;;;;;;5012574;28;20112;-38
2021/09/09 03:00:56;;;;;;;3.63;2.70;;;;;;;;;;5012565;28;20034;-38
2021/09/09 03:03:22;;;;;;;4.03;2.42;;;;;;;;;;5012689;28;20024;-38
2021/09/09 03:05:47;;;;;;;3.42;2.58;;;;;;;;;;5012888;28;20473;-38
2021/09/09 03:08:13;;;;;;;4.63;2.33;;;;;;;;;;5044361;28;20033;-39
2021/09/09 03:10:38;;;;;;;4.93;2.50;;;;;;;;;;5012448;28;20014;-38
2021/09/09 03:13:03;;;;;;;8.50;2.70;;;;;;;;;;5012554;28;20026;-38
2021/09/09 03:15:29;;;;;;;3.38;2.72;;;;;;;;;;5012340;28;20037;-38
2021/09/09 03:17:54;;;;;;;7.47;2.80;;;;;;;;;;5012474;28;20042;-38
2021/09/09 03:20:20;;;;;;;5.15;2.90;;;;;;;;;;5027868;28;20030;-38
2021/09/09 03:22:45;;;;;;;5.32;3.08;;;;;;;;;;5012260;28;20061;-38
2021/09/09 03:25:11;;;;;;;5.45;3.22;;;;;;;;;;5012680;28;20026;-38
2021/09/09 03:27:36;;;;;;;3.63;2.50;;;;;;;;;;5012342;28;20046;-39
2021/09/09 03:30:02;;;;;;;5.22;2.72;;;;;;;;;;5012304;28;20439;-38
2021/09/09 03:32:28;;;;;;;4.63;2.58;;;;;;;;;;5012354;28;20029;-38
2021/09/09 03:34:53;;;;;;;5.38;2.65;;;;;;;;;;5012529;28;20376;-38
2021/09/09 03:37:19;;;;;;;4.45;2.92;;;;;;;;;;5012193;28;20062;-38
2021/09/09 03:39:44;;;;;;;5.20;3.20;;;;;;;;;;5012288;28;20026;-38
2021/09/09 03:42:09;;;;;;;3.55;2.10;;;;;;;;;;5012323;28;20415;-40
2021/09/09 03:44:35;;;;;;;3.85;2.83;;;;;;;;;;5012056;28;20057;-39
2021/09/09 03:47:01;;;;;;;5.13;2.45;;;;;;;;;;5044234;28;20109;-39
2021/09/09 03:49:26;;;;;;;7.88;2.83;;;;;;;;;;5012335;28;20038;-39
2021/09/09 03:51:52;;;;;;;3.53;2.55;;;;;;;;;;5012376;28;20037;-39
2021/09/09 03:54:17;;;;;;;4.68;2.55;;;;;;;;;;5015624;28;20031;-40
2021/09/09 03:56:42;;;;;;;8.43;2.70;;;;;;;;;;5015945;28;20036;-39
2021/09/09 03:59:08;;;;;;;5.57;2.88;;;;;;;;;;5016145;28;20022;-39
2021/09/09 04:01:33;;;;;;;4.15;2.97;;;;;;;;;;5015555;28;20037;-39
2021/09/09 04:03:58;;;;;;;10.57;3.05;;;;;;;;;;5015794;28;20036;-39
2021/09/09 04:06:24;;;;;;;4.90;3.05;;;;;;;;;;5015563;28;20046;-40
2021/09/09 04:08:49;;;;;;;6.20;2.65;;;;;;;;;;5015911;28;20022;-40
2021/09/09 04:11:15;;;;;;;3.67;2.15;;;;;;;;;;5015823;28;20112;-40
2021/09/09 04:13:40;;;;;;;3.38;2.58;;;;;;;;;;5015659;28;20037;-40
2021/09/09 04:16:06;;;;;;;5.13;2.60;;;;;;;;;;5015550;28;20385;-39
2021/09/09 04:18:31;;;;;;;6.47;2.40;;;;;;;;;;5015418;28;20022;-39
2021/09/09 04:20:56;;;;;;;4.00;2.72;;;;;;;;;;5015387;28;20076;-39
2021/09/09 04:23:22;;;;;;;4.03;2.67;;;;;;;;;;5015568;28;20045;-39
2021/09/09 04:25:47;;;;;;;5.35;2.90;;;;;;;;;;5015283;28;20104;-39
2021/09/09 04:28:13;;;;;;;5.28;3.50;;;;;;;;;;5015267;28;20515;-39
2021/09/09 04:30:38;;;;;;;6.03;2.92;;;;;;;;;;5015516;28;20038;-39
2021/09/09 04:33:04;;;;;;;5.30;2.67;;;;;;;;;;5015346;28;20361;-39
2021/09/09 04:35:29;;;;;;;5.15;2.83;;;;;;;;;;5015137;28;20033;-39
2021/09/09 04:37:54;;;;;;;3.83;2.40;;;;;;;;;;5013756;28;20014;-39
2021/09/09 04:40:20;;;;;;;3.72;2.80;;;;;;;;;;5014865;28;20038;-39
2021/09/09 04:42:45;;;;;;;4.55;2.53;;;;;;;;;;5014921;28;20014;-40
2021/09/09 04:45:11;;;;;;;5.50;2.88;;;;;;;;;;5014774;28;20045;-39
2021/09/09 04:47:37;;;;;;;7.18;3.25;;;;;;;;;;5015079;28;20025;-39
2021/09/09 04:50:03;;;;;;;5.63;3.22;;;;;;;;;;5014884;28;20026;-39
2021/09/09 04:52:29;;;;;;;4.90;3.00;;;;;;;;;;5014662;28;20111;-40
2021/09/09 04:54:54;;;;;;;3.42;2.03;;;;;;;;;;5014731;28;20032;-39
2021/09/09 04:57:19;;;;;;;4.95;2.78;;;;;;;;;;5046689;28;20056;-41
2021/09/09 04:59:45;;;;;;;5.93;3.08;;;;;;;;;;5014779;28;20493;-39
2021/09/09 05:02:10;;;;;;;7.32;2.85;;;;;;;;;;5014748;28;20045;-39
2021/09/09 05:04:38;;;;;;;4.97;2.63;;;;;;;;;;5014095;28;20101;-40
2021/09/09 05:07:04;;;;;;;5.22;3.00;;;;;;;;;;5014609;28;20053;-40
2021/09/09 05:09:29;;;;;;;3.83;2.50;;;;;;;;;;5014593;28;20065;-40
2021/09/09 05:11:54;;;;;;;3.72;2.85;;;;;;;;;;5014711;28;20022;-39
2021/09/09 05:14:20;;;;;;;5.78;2.83;;;;;;;;;;5014590;28;20138;-40
2021/09/09 05:16:45;;;;;;;3.75;2.35;;;;;;;;;;5014669;28;20470;-39
2021/09/09 05:19:11;;;;;;;3.88;2.50;;;;;;;;;;5014676;28;20416;-39
2021/09/09 05:21:36;;;;;;;4.45;2.88;;;;;;;;;;5014286;28;20368;-40
2021/09/09 05:24:02;;;;;;;3.53;2.35;;;;;;;;;;5014185;28;20049;-39
2021/09/09 05:26:27;;;;;;;6.88;3.10;;;;;;;;;;5014433;28;20129;-39
2021/09/09 05:28:52;;;;;;;3.85;2.60;;;;;;;;;;5014334;28;20026;-39
2021/09/09 05:31:18;;;;;;;4.28;2.88;;;;;;;;;;5014358;28;20374;-40
2021/09/09 05:33:43;;;;;;;5.82;2.63;;;;;;;;;;5013868;28;20103;-39
2021/09/09 05:36:09;;;;;;;4.30;2.72;;;;;;;;;;5013975;28;20054;-39
2021/09/09 05:38:34;;;;;;;4.20;2.60;;;;;;;;;;5013873;28;20030;-39
2021/09/09 05:41:00;;;;;;;5.10;2.95;;;;;;;;;;5012446;28;20034;-39
2021/09/09 05:43:25;;;;;;;6.47;3.28;;;;;;;;;;5013646;28;20088;-40
2021/09/09 05:45:50;;;;;;;3.97;2.83;;;;;;;;;;5014137;28;20026;-38
2021/09/09 05:48:16;;;;;;;5.15;2.95;;;;;;;;;;5014034;28;20033;-39
2021/09/09 05:50:41;;;;;;;4.43;2.42;;;;;;;;;;5013618;28;20509;-39
2021/09/09 05:53:07;;;;;;;6.05;2.72;;;;;;;;;;5013896;28;20477;-39
2021/09/09 05:55:32;;;;;;;6.90;2.97;;;;;;;;;;5013558;28;20022;-39
2021/09/09 05:57:57;;;;;;;3.85;2.83;;;;;;;;;;5013889;28;20068;-39
2021/09/09 06:00:24;;;;;;;4.90;2.85;;;;;;;;;;5013348;28;20109;-39
2021/09/09 06:02:49;;;;;;;2.83;2.22;;;;;;;;;;5013723;28;20037;-41
2021/09/09 06:05:16;;;;;;;3.60;2.35;;;;;;;;;;5013494;28;20014;-41
2021/09/09 06:07:42;;;;;;;3.33;2.35;;;;;;;;;;5013382;28;20041;-41
2021/09/09 06:10:09;;;;;;;4.47;2.13;;;;;;;;;;5013453;28;20697;-40
2021/09/09 06:12:35;;;;;;;6.68;2.88;;;;;;;;;;5013443;28;20117;-40
2021/09/09 06:15:02;;;;;;;5.13;2.88;;;;;;;;;;5013266;28;20077;-39
2021/09/09 06:17:27;;;;;;;3.38;2.40;;;;;;;;;;5044420;28;20112;-39
2021/09/09 06:19:52;;;;;;;2.88;2.13;;;;;;;;;;5013111;28;20105;-39
2021/09/09 06:22:18;;;;;;;3.15;2.67;;;;;;;;;;5013145;28;20041;-39
2021/09/09 06:24:43;;;;;;;4.78;2.20;;;;;;;;;;5013054;28;20453;-39
2021/09/09 06:27:09;;;;;;;4.90;2.28;;;;;;;;;;5013044;28;20080;-39
2021/09/09 06:29:34;;;;;;;4.28;2.40;;;;;;;;;;5013324;28;20068;-39
2021/09/09 06:32:00;;;;;;;4.65;2.75;;;;;;;;;;5013248;28;20080;-39
2021/09/09 06:34:25;;;;;;;4.85;2.33;;;;;;;;;;5013149;28;20022;-39
2021/09/09 06:36:50;;;;;;;4.22;2.75;;;;;;;;;;5013262;28;20484;-39
2021/09/09 06:39:18;;;;;;;6.63;3.45;;;;;;;;;;5013223;28;20022;-40
2021/09/09 06:41:45;;;;;;;4.10;2.58;;;;;;;;;;5044442;28;20060;-38
2021/09/09 06:44:14;;;;;;;3.78;2.60;;;;;;;;;;5012695;28;20076;-39
2021/09/09 06:46:39;;;;;;;5.65;3.20;;;;;;;;;;5012860;28;20091;-39
2021/09/09 06:49:05;;;;;;;3.60;2.38;;;;;;;;;;5012688;28;20034;-39
2021/09/09 06:51:31;;;;;;;5.25;2.45;;;;;;;;;;5012649;28;20033;-38
2021/09/09 06:53:57;;;;;;;4.25;2.45;;;;;;;;;;5013019;28;20478;-39
2021/09/09 06:56:22;;;;;;;2.60;2.08;;;;;;;;;;5012539;28;20121;-38
2021/09/09 06:58:48;;;;;;;3.50;2.15;;;;;;;;;;5012685;28;20091;-39
2021/09/09 07:01:13;;;;;;;3.95;2.38;;;;;;;;;;5012450;28;20071;-38
2021/09/09 07:03:39;;;;;;;6.43;2.53;;;;;;;;;;5012429;28;20088;-38
2021/09/09 07:06:04;;;;;;;4.85;3.03;;;;;;;;;;5012619;28;20033;-39
2021/09/09 07:08:30;;;;;;;3.97;2.45;;;;;;;;;;5012501;28;20014;-38
2021/09/09 07:10:55;;;;;;;3.30;2.40;;;;;;;;;;5012554;28;20590;-39
2021/09/09 07:13:22;;;;;;;4.65;2.50;;;;;;;;;;5012586;28;20101;-38
2021/09/09 07:15:47;;;;;;;5.47;2.65;;;;;;;;;;5012431;28;20048;-39
2021/09/09 07:18:13;;;;;;;6.72;2.58;;;;;;;;;;5012581;28;20520;-39
2021/09/09 07:20:38;;;;;;;3.13;2.40;;;;;;;;;;5012344;28;20026;-38
2021/09/09 07:23:04;;;;;;;5.10;2.75;;;;;;;;;;5012361;28;20018;-38
2021/09/09 07:25:29;;;;;;;3.67;2.33;;;;;;;;;;5012444;28;20117;-38
2021/09/09 07:27:54;;;;;;;6.40;2.40;;;;;;;;;;5013812;28;20432;-38
2021/09/09 07:30:20;;;;;;;4.35;2.38;;;;;;;;;;5016641;28;20037;-38
2021/09/09 07:32:45;;;;;;;4.18;2.78;;;;;;;;;;5016515;28;20600;-38
2021/09/09 07:35:11;;;;;;;3.45;2.17;;;;;;;;;;5016310;28;20499;-38
2021/09/09 07:37:36;;;;;;;5.57;2.58;;;;;;;;;;5016121;28;20024;-38
2021/09/09 07:40:02;;;;;;;6.20;2.85;;;;;;;;;;5016028;28;20173;-38
2021/09/09 07:42:28;;;;;;;4.07;2.42;;;;;;;;;;5016325;28;20026;-39
2021/09/09 07:44:53;;;;;;;3.55;2.45;;;;;;;;;;5015920;28;20057;-39
2021/09/09 07:47:19;;;;;;;2.88;2.20;;;;;;;;;;5016302;28;20034;-39
2021/09/09 07:49:44;;;;;;;4.45;2.47;;;;;;;;;;5015968;28;20037;-38
2021/09/09 07:52:09;;;;;;;8.93;2.75;;;;;;;;;;5016096;28;20022;-38
2021/09/09 07:54:35;;;;;;;4.40;2.35;;;;;;;;;;5015873;28;20026;-39
2021/09/09 07:57:00;;;;;;;3.92;2.33;;;;;;;;;;5015878;28;20033;-39
2021/09/09 07:59:26;;;;;;;8.25;2.47;;;;;;;;;;5015661;28;20030;-39
2021/09/09 08:01:51;;;;;;;6.68;2.42;;;;;;;;;;5015649;28;20030;-39
2021/09/09 08:04:17;;;;;;;7.97;2.55;;;;;;;;;;5015761;28;20022;-38
2021/09/09 08:06:45;;;;;;;4.35;1.83;;;;;;;;;;5015474;28;20030;-40
2021/09/09 08:09:11;;;;;;;3.40;2.60;;;;;;;;;;5015676;28;20034;-39
2021/09/09 08:11:37;;;;;;;5.15;2.25;;;;;;;;;;5015751;28;20024;-38
2021/09/09 08:14:02;;;;;;;4.65;2.13;;;;;;;;;;5015556;28;20481;-38
2021/09/09 08:16:28;;;;;;;2.55;1.85;;;;;;;;;;5015561;28;20026;-39
2021/09/09 08:18:53;;;;;;;6.60;2.63;;;;;;;;;;5047225;28;20040;-39
2021/09/09 08:21:19;;;;;;;2.55;1.90;;;;;;;;;;5015336;28;20052;-38
2021/09/09 08:23:44;;;;;;;7.90;2.53;;;;;;;;;;5015533;28;20126;-39
2021/09/09 08:26:10;;;;;;;3.80;2.28;;;;;;;;;;5015327;28;20376;-39
2021/09/09 08:28:36;;;;;;;3.33;2.42;;;;;;;;;;5015247;28;20224;-39
2021/09/09 08:31:01;;;;;;;3.80;2.58;;;;;;;;;;5015103;28;20009;-38
2021/09/09 08:33:27;;;;;;;5.60;2.20;;;;;;;;;;5015221;28;20030;-39
2021/09/09 08:35:52;;;;;;;4.20;2.70;;;;;;;;;;5015136;28;20024;-39
2021/09/09 08:38:17;;;;;;;4.55;2.33;;;;;;;;;;5015135;28;20118;-38
2021/09/09 08:40:43;;;;;;;3.33;1.80;;;;;;;;;;5014077;28;20065;-39
2021/09/09 08:43:09;;;;;;;4.32;1.90;;;;;;;;;;5014995;28;20022;-39
2021/09/09 08:45:34;;;;;;;4.63;2.15;;;;;;;;;;5014687;28;20054;-39
2021/09/09 08:48:02;;;;;;;6.32;2.47;;;;;;;;;;5014934;28;20095;-39
2021/09/09 08:50:27;;;;;;;2.25;1.35;;;;;;;;;;5014796;28;20539;-39
2021/09/09 08:52:54;;;;;;;2.70;1.85;;;;;;;;;;5014862;28;20034;-39
2021/09/09 08:55:20;;;;;;;3.42;2.03;;;;;;;;;;5046608;28;20642;-39
2021/09/09 08:57:45;;;;;;;4.47;2.03;;;;;;;;;;5014682;28;20476;-39
2021/09/09 09:00:11;;;;;;;3.03;1.75;;;;;;;;;;5014778;28;20025;-39
2021/09/09 09:02:46;;;;;;;7.18;1.70;;;;;;;;;;5014393;28;20181;-39
2021/09/09 09:05:11;;;;;;;3.33;1.80;;;;;;;;;;5014695;28;20041;-38
2021/09/09 09:07:37;;;;;;;3.75;1.50;;;;;;;;;;5046367;28;20372;-39
2021/09/09 09:10:04;;;;;;;3.47;1.73;;;;;;;;;;5014520;28;20141;-39
2021/09/09 09:12:39;;;;;;;3.65;2.03;;;;;;;;;;5014595;28;20420;-38
2021/09/09 09:15:11;;;;;;;3.60;1.38;;;;;;;;;;5014654;28;20030;-38
2021/09/09 09:17:52;;;;;;;3.40;1.65;;;;;;;;;;5014500;28;20026;-38
2021/09/09 09:20:17;;;;;;;2.80;1.55;;;;;;;;;;5014386;28;20037;-38
2021/09/09 09:22:44;;;;;;;3.78;1.77;;;;;;;;;;5014112;28;20041;-38
2021/09/09 09:25:10;;;;;;;7.78;1.88;;;;;;;;;;5014215;28;20037;-38
2021/09/09 09:27:43;;;;;;;4.22;1.67;;;;;;;;;;5014166;28;20124;-38
2021/09/09 09:30:09;;;;;;;3.75;1.35;;;;;;;;;;5014096;28;20062;-38
2021/09/09 09:32:36;;;;;;;5.15;2.20;;;;;;;;;;5013998;28;20018;-38
2021/09/09 09:35:12;;;;;;;2.60;1.85;;;;;;;;;;5014014;28;20030;-38
2021/09/09 09:37:56;;;;;;;2.25;1.35;;;;;;;;;;5014272;28;20052;-38
2021/09/09 09:40:26;;;;;;;3.65;1.42;;;;;;;;;;5014155;28;20034;-38
2021/09/09 09:42:52;;;;;;;4.03;1.98;;;;;;;;;;5013981;28;20030;-38
2021/09/09 09:45:17;;;;;;;4.43;1.83;;;;;;;;;;5013678;28;20070;-38
2021/09/09 09:47:42;;;;;;;5.18;1.83;;;;;;;;;;5013824;28;20033;-38
2021/09/09 09:50:18;;;;;;;2.92;1.83;;;;;;;;;;5013564;28;20477;-38
2021/09/09 09:52:44;;;;;;;3.05;1.92;;;;;;;;;;5013545;28;20048;-38
2021/09/09 09:55:10;;;;;;;3.92;1.55;;;;;;;;;;5013913;28;20097;-38
2021/09/09 09:57:49;;;;;;;2.00;1.60;;;;;;;;;;5013608;28;20025;-38
2021/09/09 10:00:14;;;;;;;2.60;1.38;;;;;;;;;;5028647;28;20064;-38
2021/09/09 10:02:40;;;;;;;2.92;1.80;;;;;;;;;;5013651;28;20433;-38
2021/09/09 10:05:06;;;;;;;5.47;1.55;;;;;;;;;;5013826;28;20423;-38
2021/09/09 10:07:32;;;;;;;2.10;1.85;;;;;;;;;;5013302;28;20026;-38
2021/09/09 10:09:57;;;;;;;1.52;1.30;;;;;;;;;;5013521;28;20028;-38
2021/09/09 10:12:25;;;;;;;3.80;1.75;;;;;;;;;;5013334;28;20448;-38
2021/09/09 10:14:51;;;;;;;2.78;1.63;;;;;;;;;;5013172;28;20041;-38
2021/09/09 10:17:18;;;;;;;3.83;1.88;;;;;;;;;;5013626;28;20021;-38
2021/09/09 10:19:43;;;;;;;3.20;1.52;;;;;;;;;;5013184;28;20084;-38
2021/09/09 10:22:11;;;;;;;7.45;2.80;;;;;;;;;;5013035;28;20042;-38
2021/09/09 10:24:37;;;;;;;4.97;1.58;;;;;;;;;;5013200;28;20025;-38
2021/09/09 10:27:21;;;;;;;4.03;1.30;;;;;;;;;;5013335;28;20381;-38
2021/09/09 10:30:00;;;;;;;2.47;1.40;;;;;;;;;;5012950;28;20108;-38
2021/09/09 10:32:28;;;;;;;2.33;1.10;;;;;;;;;;5013005;28;20524;-38
2021/09/09 10:35:29;;;;;;;8.07;2.00;;;;;;;;;;5012895;28;20457;-38
2021/09/09 10:37:56;;;;;;;2.33;0.98;;;;;;;;;;5009173;28;20046;-41
2021/09/09 10:40:28;;;;;;;2.38;1.73;;;;;;;;;;5044664;28;20109;-40
2021/09/09 10:42:54;;;;;;;1.92;1.52;;;;;;;;;;5012933;28;20026;-41
2021/09/09 10:45:35;;;;;;;4.90;1.65;;;;;;;;;;5012728;28;20399;-41
2021/09/09 10:48:01;;;;;;;2.25;1.42;;;;;;;;;;5012932;28;20172;-38
2021/09/09 10:50:27;;;;;;;3.33;1.08;;;;;;;;;;5012628;28;20468;-37
2021/09/09 10:53:05;;;;;;;3.95;1.80;;;;;;;;;;5012815;28;20065;-37
2021/09/09 10:55:32;;;;;;;3.92;1.67;;;;;;;;;;5012978;28;20451;-37
2021/09/09 10:58:16;;;;;;;3.15;1.38;;;;;;;;;;5012715;28;20022;-38
2021/09/09 11:00:51;;;;;;;2.50;1.88;;;;;;;;;;5012476;28;20041;-37
2021/09/09 11:03:35;;;;;;;2.65;1.30;;;;;;;;;;5027271;28;20057;-37
2021/09/09 11:06:01;;;;;;;2.45;1.35;;;;;;;;;;5013010;28;20050;-38
2021/09/09 11:08:29;;;;;;;3.70;1.60;;;;;;;;;;5012845;28;20030;-38
2021/09/09 11:10:55;;;;;;;5.65;2.05;;;;;;;;;;5012486;28;20030;-37
2021/09/09 11:13:27;;;;;;;2.45;1.85;;;;;;;;;;5012611;28;20018;-37
2021/09/09 11:15:53;;;;;;;2.90;1.52;;;;;;;;;;5012345;28;20041;-37
2021/09/09 11:18:32;;;;;;;5.78;1.52;;;;;;;;;;5012565;28;20388;-37
2021/09/09 11:21:05;;;;;;;8.38;1.77;;;;;;;;;;5012323;28;20034;-37
2021/09/09 11:23:30;;;;;;;4.28;2.60;;;;;;;;;;5012374;28;20040;-38
2021/09/09 11:25:55;;;;;;;4.53;1.35;;;;;;;;;;5012361;28;20022;-37
2021/09/09 11:28:21;;;;;;;4.07;2.08;;;;;;;;;;5012361;28;20061;-37
2021/09/09 11:31:06;;;;;;;8.18;1.67;;;;;;;;;;5012293;28;20022;-37
2021/09/09 11:33:31;;;;;;;3.13;1.60;;;;;;;;;;5027453;28;20485;-37
2021/09/09 11:36:03;;;;;;;2.28;1.42;;;;;;;;;;5012598;28;20048;-38
2021/09/09 11:38:32;;;;;;;4.65;2.20;;;;;;;;;;5012246;28;20477;-38
2021/09/09 11:41:07;;;;;;;6.85;1.48;;;;;;;;;;5012088;28;20462;-37
2021/09/09 11:43:33;;;;;;;4.57;1.65;;;;;;;;;;5011782;28;20037;-37
2021/09/09 11:45:59;;;;;;;4.75;1.35;;;;;;;;;;5027491;28;20488;-37
2021/09/09 11:48:24;;;;;;;4.97;1.42;;;;;;;;;;5012218;28;20026;-37
2021/09/09 11:50:50;;;;;;;12.80;1.85;;;;;;;;;;5012198;28;20021;-38
2021/09/09 11:53:22;;;;;;;4.30;1.40;;;;;;;;;;5012138;28;20038;-37
2021/09/09 11:55:48;;;;;;;8.02;1.70;;;;;;;;;;5012095;28;20041;-41
2021/09/09 11:58:32;;;;;;;3.83;1.80;;;;;;;;;;5012465;28;20022;-40
2021/09/09 12:00:59;;;;;;;2.40;1.38;;;;;;;;;;5011975;28;20038;-40
2021/09/09 12:03:25;;;;;;;2.67;1.60;;;;;;;;;;5012072;28;20022;-40
2021/09/09 12:05:52;;;;;;;1.83;1.17;;;;;;;;;;5012019;28;20485;-38
2021/09/09 12:08:18;;;;;;;6.25;1.58;;;;;;;;;;5012087;28;20018;-38
2021/09/09 12:10:44;;;;;;;3.22;1.48;;;;;;;;;;5012167;28;20116;-38
2021/09/09 12:13:10;;;;;;;2.65;1.92;;;;;;;;;;5012222;28;20026;-38
2021/09/09 12:15:36;;;;;;;3.58;2.15;;;;;;;;;;5015417;28;20083;-38
2021/09/09 12:18:09;;;;;;;4.22;1.42;;;;;;;;;;5015562;28;20021;-38
2021/09/09 12:20:34;;;;;;;6.43;1.65;;;;;;;;;;5015305;28;20034;-38
2021/09/09 12:23:00;;;;;;;3.90;1.13;;;;;;;;;;5015329;28;20519;-38
2021/09/09 12:25:29;;;;;;;7.43;1.92;;;;;;;;;;5015632;28;20164;-38
2021/09/09 12:27:57;;;;;;;3.95;1.27;;;;;;;;;;5015366;28;20026;-38
2021/09/09 12:30:23;;;;;;;2.13;1.58;;;;;;;;;;5015212;28;20077;-39
2021/09/09 12:32:48;;;;;;;1.65;1.30;;;;;;;;;;5015186;28;20033;-38
2021/09/09 12:35:18;;;;;;;4.18;1.85;;;;;;;;;;5015464;28;20026;-38
2021/09/09 12:37:44;;;;;;;6.03;1.58;;;;;;;;;;5015062;28;20029;-38
2021/09/09 12:40:10;;;;;;;6.20;2.00;;;;;;;;;;5046826;28;20061;-38
2021/09/09 12:42:37;;;;;;;3.20;1.60;;;;;;;;;;5014931;28;20034;-38
2021/09/09 12:45:08;;;;;;;2.38;1.48;;;;;;;;;;5014835;28;20141;-38
2021/09/09 12:47:33;;;;;;;2.50;1.85;;;;;;;;;;5014969;28;20523;-38
2021/09/09 12:50:18;;;;;;;4.10;2.08;;;;;;;;;;5015006;28;20080;-38
2021/09/09 12:52:53;;;;;;;5.35;1.80;;;;;;;;;;5014668;28;20022;-38
2021/09/09 12:55:19;;;;;;;1.90;1.30;;;;;;;;;;5014922;28;20036;-39
2021/09/09 12:57:44;;;;;;;3.45;1.83;;;;;;;;;;5014945;28;20384;-39
2021/09/09 13:00:10;;;;;;;7.95;2.28;;;;;;;;;;5014841;28;20454;-39
2021/09/09 13:02:35;;;;;;;1.95;1.33;;;;;;;;;;5014464;28;20489;-41
2021/09/09 13:05:00;;;;;;;6.55;1.55;;;;;;;;;;5014632;28;20018;-39
2021/09/09 13:07:26;;;;;;;3.40;1.77;;;;;;;;;;5014785;28;20476;-39
2021/09/09 13:09:51;;;;;;;2.88;1.77;;;;;;;;;;5014561;28;20389;-39
2021/09/09 13:12:17;;;;;;;2.72;1.75;;;;;;;;;;5014525;28;20018;-39
2021/09/09 13:14:42;;;;;;;10.30;2.03;;;;;;;;;;5014405;28;20465;-39
2021/09/09 13:17:08;;;;;;;7.80;2.45;;;;;;;;;;5014477;28;20014;-39
2021/09/09 13:19:34;;;;;;;2.67;1.92;;;;;;;;;;5014268;28;20044;-40
2021/09/09 13:21:59;;;;;;;3.88;2.00;;;;;;;;;;5014166;28;20117;-39
2021/09/09 13:24:27;;;;;;;3.25;2.13;;;;;;;;;;5014393;28;20168;-39
2021/09/09 13:26:53;;;;;;;5.68;1.73;;;;;;;;;;5013853;28;20029;-39
2021/09/09 13:29:18;;;;;;;3.70;1.90;;;;;;;;;;5014489;28;20022;-39
2021/09/09 13:31:44;;;;;;;4.30;1.80;;;;;;;;;;5014359;28;20022;-39
2021/09/09 13:34:10;;;;;;;3.85;1.50;;;;;;;;;;5013966;28;20030;-39
2021/09/09 13:36:38;;;;;;;4.20;1.85;;;;;;;;;;5014046;28;20022;-39
2021/09/09 13:39:04;;;;;;;2.95;1.58;;;;;;;;;;5013937;28;20029;-40
2021/09/09 13:41:29;;;;;;;3.10;2.53;;;;;;;;;;5013788;28;20030;-39
2021/09/09 13:43:54;;;;;;;4.05;1.98;;;;;;;;;;5014020;28;20045;-39
2021/09/09 13:46:20;;;;;;;4.18;1.52;;;;;;;;;;5014169;28;20030;-39
2021/09/09 13:48:45;;;;;;;1.95;1.50;;;;;;;;;;5013773;28;20026;-39
2021/09/09 13:51:11;;;;;;;6.10;1.80;;;;;;;;;;5013711;28;20378;-40
2021/09/09 13:53:36;;;;;;;7.13;1.65;;;;;;;;;;5013974;28;20026;-39
2021/09/09 13:56:02;;;;;;;7.88;2.25;;;;;;;;;;5013667;28;20068;-39
2021/09/09 13:58:27;;;;;;;2.83;1.80;;;;;;;;;;5013581;28;20026;-39
2021/09/09 14:00:53;;;;;;;2.40;1.83;;;;;;;;;;5013459;28;20026;-40
2021/09/09 14:03:18;;;;;;;5.82;2.03;;;;;;;;;;5013529;28;20038;-40
2021/09/09 14:05:43;;;;;;;4.38;1.40;;;;;;;;;;5013454;28;20029;-39
2021/09/09 14:08:09;;;;;;;2.45;1.50;;;;;;;;;;5013561;28;20033;-39
2021/09/09 14:10:34;;;;;;;2.90;1.67;;;;;;;;;;5013290;28;20020;-39
2021/09/09 14:13:04;;;;;;;2.38;1.27;;;;;;;;;;5013727;28;20061;-39
2021/09/09 14:15:29;;;;;;;6.53;1.83;;;;;;;;;;5013233;28;20026;-38
2021/09/09 14:17:55;;;;;;;1.95;1.38;;;;;;;;;;5013315;28;20037;-39
2021/09/09 14:20:20;;;;;;;3.95;2.20;;;;;;;;;;5013254;28;20025;-39
2021/09/09 14:22:46;;;;;;;6.72;2.40;;;;;;;;;;5013056;28;20092;-39
2021/09/09 14:25:11;;;;;;;3.28;1.95;;;;;;;;;;5013177;28;20014;-39
2021/09/09 14:27:37;;;;;;;4.00;1.52;;;;;;;;;;5013432;28;20036;-39
2021/09/09 14:30:04;;;;;;;3.75;2.20;;;;;;;;;;5013272;28;20397;-39
2021/09/09 14:32:29;;;;;;;5.35;1.80;;;;;;;;;;5044831;28;20080;-39
2021/09/09 14:34:54;;;;;;;3.22;2.00;;;;;;;;;;5013361;28;20030;-40
2021/09/09 14:37:22;;;;;;;3.47;1.88;;;;;;;;;;5012189;28;20041;-39
2021/09/09 14:39:47;;;;;;;2.92;1.73;;;;;;;;;;5013005;28;20068;-39